createdAt,value
2023-04-14T00:00:42.407Z,7.03
2023-04-14T00:03:09.762Z,10.20
2023-04-14T00:05:36.626Z,8.00
2023-04-14T00:08:03.883Z,7.47
2023-04-14T00:10:30.800Z,9.13
2023-04-14T00:12:57.725Z,4.38
2023-04-14T00:15:24.706Z,10.15
2023-04-14T00:17:51.730Z,5.53
2023-04-14T00:20:18.783Z,9.20
2023-04-14T00:22:45.671Z,4.93
2023-04-14T00:25:12.687Z,6.88
2023-04-14T00:27:39.686Z,7.63
2023-04-14T00:30:08.714Z,9.25
2023-04-14T00:32:35.722Z,10.13
2023-04-14T00:35:03.685Z,12.02
2023-04-14T00:37:31.194Z,10.82
2023-04-14T00:39:59.656Z,7.37
2023-04-14T00:42:27.296Z,8.57
2023-04-14T00:44:54.367Z,7.13
2023-04-14T00:47:23.025Z,10.80
2023-04-14T00:49:51.000Z,8.15
2023-04-14T00:52:18.821Z,12.03
2023-04-14T00:54:45.691Z,9.88
2023-04-14T00:57:12.510Z,8.65
2023-04-14T00:59:39.525Z,9.95
2023-04-14T01:02:06.600Z,8.60
2023-04-14T01:04:49.101Z,13.20
2023-04-14T01:07:21.238Z,8.13
2023-04-14T01:09:48.272Z,8.27
2023-04-14T01:12:35.966Z,12.00
2023-04-14T01:15:20.975Z,12.02
2023-04-14T01:18:02.391Z,10.32
2023-04-14T01:20:29.941Z,8.30
2023-04-14T01:23:16.117Z,8.80
2023-04-14T01:25:56.078Z,11.15
2023-04-14T01:28:44.312Z,14.10
2023-04-14T01:31:17.366Z,8.30
2023-04-14T01:33:46.990Z,11.63
2023-04-14T01:36:22.322Z,9.98
2023-04-14T01:38:50.616Z,16.67
2023-04-14T01:41:19.675Z,12.85
2023-04-14T01:43:49.871Z,10.80
2023-04-14T01:46:17.730Z,8.90
2023-04-14T01:48:46.040Z,12.50
2023-04-14T01:51:14.795Z,11.25
2023-04-14T01:53:44.159Z,10.20
2023-04-14T01:56:13.085Z,10.75
2023-04-14T01:58:42.078Z,11.10
2023-04-14T02:01:10.227Z,12.27
2023-04-14T02:03:39.354Z,9.87
2023-04-14T02:06:07.903Z,10.32
2023-04-14T02:08:39.979Z,9.15
2023-04-14T02:11:08.234Z,13.05
2023-04-14T02:13:37.298Z,10.10
2023-04-14T02:16:05.733Z,9.40
2023-04-14T02:18:33.606Z,8.18
2023-04-14T02:21:03.530Z,12.13
2023-04-14T02:23:31.701Z,10.32
2023-04-14T02:26:13.661Z,10.38
2023-04-14T02:28:51.294Z,13.23
2023-04-14T02:31:23.857Z,11.93
2023-04-14T02:33:56.040Z,14.50
2023-04-14T02:36:32.653Z,13.23
2023-04-14T02:39:04.576Z,11.23
2023-04-14T02:41:33.658Z,8.40
2023-04-14T02:44:10.770Z,13.07
2023-04-14T02:46:41.730Z,14.25
2023-04-14T02:49:13.451Z,13.32
2023-04-14T02:51:43.536Z,14.82
2023-04-14T02:54:12.683Z,15.05
2023-04-14T02:56:43.998Z,19.98
2023-04-14T02:59:12.435Z,8.85
2023-04-14T03:01:54.929Z,13.77
2023-04-14T03:04:23.530Z,16.88
2023-04-14T03:06:52.225Z,14.40
2023-04-14T03:09:20.475Z,13.95
2023-04-14T03:11:47.770Z,12.27
2023-04-14T03:14:17.114Z,12.63
2023-04-14T03:16:44.120Z,11.75
2023-04-14T03:19:12.968Z,14.13
2023-04-14T03:21:44.042Z,15.75
2023-04-14T03:24:14.381Z,14.35
2023-04-14T03:26:43.442Z,14.32
2023-04-14T03:29:10.527Z,15.77
2023-04-14T03:31:38.342Z,14.20
2023-04-14T03:34:08.284Z,17.98
2023-04-14T03:36:42.464Z,9.68
2023-04-14T03:39:14.496Z,11.88
2023-04-14T03:41:48.105Z,11.63
2023-04-14T03:44:19.113Z,13.43
2023-04-14T03:46:49.556Z,15.53
2023-04-14T03:49:18.579Z,12.37
2023-04-14T03:51:49.632Z,11.02
2023-04-14T03:54:18.684Z,16.63
2023-04-14T03:56:48.270Z,10.17
2023-04-14T03:59:17.920Z,16.27
2023-04-14T04:01:46.780Z,12.15
2023-04-14T04:04:15.075Z,15.05
2023-04-14T04:06:43.292Z,12.93
2023-04-14T04:09:12.812Z,12.10
2023-04-14T04:11:41.940Z,10.60
2023-04-14T04:14:10.767Z,15.80
2023-04-14T04:16:41.628Z,16.42
2023-04-14T04:19:12.712Z,11.70
2023-04-14T04:21:42.143Z,11.13
2023-04-14T04:24:12.248Z,12.73
2023-04-14T04:26:40.094Z,15.65
2023-04-14T04:29:08.352Z,16.85
2023-04-14T04:31:35.487Z,15.07
2023-04-14T04:34:05.831Z,14.90
2023-04-14T04:36:34.458Z,15.88
2023-04-14T04:39:01.420Z,19.88
2023-04-14T04:41:31.015Z,13.48
2023-04-14T04:44:01.796Z,9.60
2023-04-14T04:46:54.360Z,17.55
2023-04-14T04:49:25.235Z,10.85
2023-04-14T04:51:53.720Z,12.82
2023-04-14T04:54:21.249Z,17.00
2023-04-14T04:56:48.415Z,14.20
2023-04-14T04:59:15.461Z,10.45
2023-04-14T05:01:42.340Z,16.70
2023-04-14T05:04:09.209Z,14.23
2023-04-14T05:06:37.468Z,14.20
2023-04-14T05:09:04.973Z,11.88
2023-04-14T05:11:35.835Z,13.60
2023-04-14T05:14:03.234Z,13.32
2023-04-14T05:16:30.129Z,15.20
2023-04-14T05:18:57.071Z,18.75
2023-04-14T05:21:23.960Z,11.45
2023-04-14T05:23:51.110Z,12.75
2023-04-14T05:28:47.962Z,11.18
2023-04-14T05:31:14.922Z,13.35
2023-04-14T05:33:42.052Z,12.20
2023-04-14T05:36:08.910Z,10.90
2023-04-14T05:38:44.846Z,11.52
2023-04-14T05:41:12.365Z,9.38
2023-04-14T05:43:39.273Z,9.70
2023-04-14T05:46:06.242Z,9.55
2023-04-14T05:48:33.757Z,5.72
2023-04-14T05:51:00.851Z,7.95
2023-04-14T05:53:28.019Z,12.18
2023-04-14T05:55:57.112Z,11.20
2023-04-14T05:58:26.564Z,9.70
2023-04-14T06:00:53.747Z,6.67
2023-04-14T06:03:21.014Z,7.78
2023-04-14T06:05:48.238Z,9.70
2023-04-14T06:08:15.534Z,9.77
2023-04-14T06:10:42.459Z,10.68
2023-04-14T06:13:09.603Z,8.77
2023-04-14T06:15:37.709Z,5.68
2023-04-14T06:18:04.652Z,8.43
2023-04-14T06:20:32.561Z,6.00
2023-04-14T06:23:00.867Z,10.40
2023-04-14T06:25:27.728Z,10.73
2023-04-14T06:27:54.603Z,9.27
2023-04-14T06:30:21.672Z,7.82
2023-04-14T06:32:51.610Z,7.65
2023-04-14T06:35:32.026Z,7.28
2023-04-14T06:38:00.415Z,9.02
2023-04-14T06:40:27.637Z,9.70
2023-04-14T06:42:54.468Z,11.02
2023-04-14T06:45:21.440Z,9.80
2023-04-14T06:47:48.499Z,8.73
2023-04-14T06:50:15.520Z,9.85
2023-04-14T06:52:42.470Z,7.97
2023-04-14T06:55:09.751Z,7.78
2023-04-14T06:57:36.574Z,9.97
2023-04-14T07:00:05.111Z,7.97
2023-04-14T07:02:32.039Z,7.70
2023-04-14T07:04:59.294Z,10.07
2023-04-14T07:07:26.237Z,6.93
2023-04-14T07:09:53.253Z,8.63
2023-04-14T07:12:20.299Z,6.72
2023-04-14T07:14:52.006Z,7.03
2023-04-14T07:17:19.514Z,7.25
2023-04-14T07:19:46.598Z,7.53
2023-04-14T07:22:13.622Z,7.50
2023-04-14T07:24:40.595Z,7.97
2023-04-14T07:27:07.508Z,6.32
2023-04-14T07:29:34.982Z,4.47
2023-04-14T07:32:02.305Z,8.30
2023-04-14T07:34:29.095Z,8.32
2023-04-14T07:36:56.239Z,6.25
2023-04-14T07:39:23.789Z,7.97
2023-04-14T07:41:51.127Z,5.43
2023-04-14T07:44:18.007Z,5.90
2023-04-14T07:46:45.177Z,6.93
2023-04-14T07:49:12.097Z,3.90
2023-04-14T07:51:38.993Z,5.68
2023-04-14T07:54:06.232Z,4.80
2023-04-14T07:56:33.464Z,6.13
2023-04-14T07:59:00.729Z,8.88
2023-04-14T08:01:27.742Z,6.23
2023-04-14T08:03:54.783Z,8.80
2023-04-14T08:06:21.985Z,6.15
2023-04-14T08:08:48.872Z,8.95
2023-04-14T08:11:15.821Z,6.10
2023-04-14T08:13:43.224Z,5.97
2023-04-14T08:16:10.731Z,5.88
2023-04-14T08:18:39.372Z,6.25
2023-04-14T08:21:06.848Z,7.43
2023-04-14T08:23:34.333Z,4.25
2023-04-14T08:26:01.222Z,4.95
2023-04-14T08:28:28.728Z,6.65
2023-04-14T08:30:55.673Z,7.60
2023-04-14T08:33:22.592Z,8.05
2023-04-14T08:35:59.294Z,6.13
2023-04-14T08:38:28.861Z,6.70
2023-04-14T08:40:56.642Z,5.63
2023-04-14T08:43:23.826Z,6.03
2023-04-14T08:45:54.033Z,5.25
2023-04-14T08:48:24.996Z,3.00
2023-04-14T08:51:05.370Z,4.35
2023-04-14T08:53:42.793Z,5.32
2023-04-14T08:56:14.084Z,5.15
2023-04-14T08:58:42.024Z,3.00
2023-04-14T09:01:09.754Z,5.32
2023-04-14T09:03:37.841Z,9.20
2023-04-14T09:06:06.156Z,5.30
2023-04-14T09:08:35.965Z,5.40
2023-04-14T09:11:03.936Z,6.10
2023-04-14T09:13:31.698Z,5.32
2023-04-14T09:16:00.034Z,7.55
2023-04-14T09:18:28.537Z,3.63
2023-04-14T09:21:29.985Z,5.40
2023-04-14T09:23:43.248Z,4.85
2023-04-14T09:26:10.749Z,4.17
2023-04-14T09:28:38.173Z,5.43
2023-04-14T09:31:05.633Z,4.30
2023-04-14T09:33:34.354Z,5.00
2023-04-14T09:36:01.282Z,5.15
2023-04-14T09:38:32.688Z,5.43
2023-04-14T09:40:59.975Z,5.78
2023-04-14T09:43:28.093Z,6.32
2023-04-14T09:45:56.008Z,3.58
2023-04-14T09:48:23.112Z,6.72
2023-04-14T09:50:58.438Z,5.20
2023-04-14T09:53:27.721Z,5.22
2023-04-14T09:55:54.722Z,7.90
2023-04-14T09:58:27.274Z,6.32
2023-04-14T10:00:55.235Z,6.65
2023-04-14T10:03:42.161Z,3.38
2023-04-14T10:06:16.440Z,3.45
2023-04-14T10:08:47.033Z,6.23
2023-04-14T10:11:22.802Z,5.07
2023-04-14T10:13:51.610Z,6.00
2023-04-14T10:16:18.724Z,5.95
2023-04-14T10:18:46.673Z,5.97
2023-04-14T10:21:15.753Z,6.18
2023-04-14T10:23:43.859Z,6.40
2023-04-14T10:26:12.710Z,4.33
2023-04-14T10:28:43.086Z,5.43
2023-04-14T10:31:28.558Z,5.13
2023-04-14T10:33:55.841Z,3.92
2023-04-14T10:36:28.123Z,5.78
2023-04-14T10:39:03.454Z,5.05
2023-04-14T10:41:56.965Z,5.23
2023-04-14T10:44:32.745Z,5.30
2023-04-14T10:47:02.294Z,6.43
2023-04-14T10:49:34.485Z,5.20
2023-04-14T10:52:25.750Z,5.83
2023-04-14T10:54:54.967Z,3.50
2023-04-14T10:57:26.691Z,5.47
2023-04-14T10:59:59.243Z,4.00
2023-04-14T11:02:32.930Z,4.50
2023-04-14T11:05:10.345Z,2.75
2023-04-14T11:07:54.455Z,3.22
2023-04-14T11:10:33.005Z,4.25
2023-04-14T11:13:03.986Z,3.70
2023-04-14T11:15:57.587Z,3.95
2023-04-14T11:18:30.358Z,1.83
2023-04-14T11:21:07.540Z,4.30
2023-04-14T11:23:35.860Z,2.33
2023-04-14T11:26:05.786Z,6.15
2023-04-14T11:28:41.983Z,3.20
2023-04-14T11:31:11.436Z,3.97
2023-04-14T11:33:39.856Z,4.00
2023-04-14T11:36:07.927Z,2.38
2023-04-14T11:38:36.073Z,3.67
2023-04-14T11:41:04.400Z,2.88
2023-04-14T11:43:31.662Z,3.47
2023-04-14T11:46:00.731Z,5.22
2023-04-14T11:48:29.144Z,5.40
2023-04-14T11:51:02.548Z,2.42
2023-04-14T11:53:29.695Z,2.40
2023-04-14T11:55:57.686Z,3.47
2023-04-14T11:58:28.908Z,4.47
2023-04-14T12:00:57.636Z,3.15
2023-04-14T12:03:29.358Z,4.80
2023-04-14T12:06:01.680Z,2.67
2023-04-14T12:08:32.727Z,3.38
2023-04-14T12:11:13.323Z,8.48
2023-04-14T12:13:41.994Z,3.97
2023-04-14T12:16:09.534Z,2.92
2023-04-14T12:18:36.469Z,2.13
2023-04-14T12:21:06.404Z,3.90
2023-04-14T12:23:40.134Z,4.82
2023-04-14T12:26:13.192Z,6.45
2023-04-14T12:28:42.017Z,3.65
2023-04-14T12:31:10.054Z,5.28
2023-04-14T12:33:37.346Z,3.35
2023-04-14T12:36:12.468Z,3.90
2023-04-14T12:38:39.701Z,2.47
2023-04-14T12:41:06.661Z,2.47
2023-04-14T12:43:35.553Z,2.90
2023-04-14T12:46:03.900Z,2.10
2023-04-14T12:48:44.398Z,2.60
2023-04-14T12:51:18.865Z,3.35
2023-04-14T12:53:47.668Z,3.20
2023-04-14T12:56:19.748Z,3.75
2023-04-14T12:58:48.671Z,3.65
2023-04-14T13:01:17.360Z,2.13
2023-04-14T13:03:46.892Z,2.45
2023-04-14T13:06:16.533Z,3.33
2023-04-14T13:08:48.369Z,4.13
2023-04-14T13:11:16.480Z,2.97
2023-04-14T13:13:46.860Z,1.95
2023-04-14T13:16:16.823Z,2.40
2023-04-14T13:18:46.512Z,3.20
2023-04-14T13:21:14.234Z,3.00
2023-04-14T13:23:41.499Z,4.80
2023-04-14T13:26:08.460Z,3.83
2023-04-14T13:28:36.534Z,3.53
2023-04-14T13:31:03.480Z,2.25
2023-04-14T13:33:32.834Z,4.68
2023-04-14T13:36:00.987Z,3.33
2023-04-14T13:38:27.880Z,3.20
2023-04-14T13:40:54.865Z,5.70
2023-04-14T13:43:23.247Z,6.35
2023-04-14T13:45:50.132Z,4.72
2023-04-14T13:48:17.026Z,3.20
2023-04-14T13:50:43.918Z,2.65
2023-04-14T13:53:12.230Z,2.95
2023-04-14T13:55:39.406Z,4.60
2023-04-14T13:58:06.326Z,3.17
2023-04-14T14:00:33.261Z,3.15
2023-04-14T14:03:00.934Z,3.85
2023-04-14T14:05:28.397Z,2.90
2023-04-14T14:07:56.359Z,4.30
2023-04-14T14:10:23.510Z,3.23
2023-04-14T14:12:50.281Z,4.13
2023-04-14T14:15:17.362Z,5.90
2023-04-14T14:17:44.233Z,3.70
2023-04-14T14:20:11.394Z,2.92
2023-04-14T14:22:38.601Z,4.90
2023-04-14T14:25:18.485Z,4.15
2023-04-14T14:27:47.829Z,4.75
2023-04-14T14:30:14.713Z,4.28
2023-04-14T14:32:41.709Z,4.75
2023-04-14T14:35:09.118Z,9.00
2023-04-14T14:37:36.687Z,3.90
2023-04-14T14:40:03.966Z,5.68
2023-04-14T14:42:31.163Z,2.95
2023-04-14T14:44:58.925Z,3.93
2023-04-14T14:47:28.370Z,4.07
2023-04-14T14:50:02.066Z,4.35
2023-04-14T14:52:36.389Z,4.25
2023-04-14T14:55:08.232Z,2.22
2023-04-14T14:57:40.158Z,4.63
2023-04-14T15:00:07.984Z,3.78
2023-04-14T15:02:35.153Z,3.67
2023-04-14T15:05:02.125Z,5.10
2023-04-14T15:07:29.134Z,3.60
2023-04-14T15:09:56.033Z,6.13
2023-04-14T15:12:22.918Z,4.47
2023-04-14T15:14:49.896Z,6.00
2023-04-14T15:17:16.833Z,1.80
2023-04-14T15:19:44.816Z,2.80
2023-04-14T15:22:11.564Z,4.53
2023-04-14T15:24:38.444Z,3.93
2023-04-14T15:27:05.875Z,4.47
2023-04-14T15:29:32.837Z,2.85
2023-04-14T15:31:59.860Z,3.43
2023-04-14T15:34:27.189Z,3.00
2023-04-14T15:36:54.088Z,4.03
2023-04-14T15:39:20.919Z,2.13
2023-04-14T15:41:49.863Z,2.22
2023-04-14T15:44:16.721Z,4.63
2023-04-14T15:46:43.552Z,4.93
2023-04-14T15:49:13.344Z,6.45
2023-04-14T15:51:40.319Z,6.70
2023-04-14T15:54:07.179Z,4.82
2023-04-14T15:56:35.534Z,2.30
2023-04-14T15:59:02.347Z,4.70
2023-04-14T16:01:29.199Z,3.88
2023-04-14T16:03:56.027Z,3.33
2023-04-14T16:06:23.491Z,4.45
2023-04-14T16:08:50.441Z,2.72
2023-04-14T16:11:17.451Z,2.35
2023-04-14T16:13:44.563Z,1.67
2023-04-14T16:16:13.575Z,4.85
2023-04-14T16:18:40.530Z,2.28
2023-04-14T16:21:07.397Z,4.15
2023-04-14T16:23:34.536Z,2.35
2023-04-14T16:26:02.197Z,1.23
2023-04-14T16:28:29.053Z,3.20
2023-04-14T16:30:59.559Z,3.03
2023-04-14T16:33:27.420Z,2.60
2023-04-14T16:35:57.039Z,2.83
2023-04-14T16:38:24.280Z,4.35
2023-04-14T16:40:58.348Z,2.72
2023-04-14T16:43:27.151Z,3.87
2023-04-14T16:46:00.472Z,4.30
2023-04-14T16:48:27.504Z,2.30
2023-04-14T16:50:54.471Z,3.22
2023-04-14T16:53:21.763Z,1.95
2023-04-14T16:55:48.583Z,2.80
2023-04-14T16:58:15.347Z,3.97
2023-04-14T17:00:42.314Z,2.35
2023-04-14T17:03:09.304Z,4.82
2023-04-14T17:05:36.468Z,6.13
2023-04-14T17:08:03.711Z,5.03
2023-04-14T17:10:31.144Z,3.30
2023-04-14T17:12:58.037Z,3.35
2023-04-14T17:15:24.821Z,2.15
2023-04-14T17:17:51.675Z,3.80
2023-04-14T17:20:18.633Z,5.30
2023-04-14T17:22:45.544Z,3.70
2023-04-14T17:25:14.793Z,2.28
2023-04-14T17:27:41.854Z,3.85
2023-04-14T17:30:10.894Z,4.35
2023-04-14T17:32:39.906Z,4.57
2023-04-14T17:35:08.810Z,4.32
2023-04-14T17:37:36.464Z,4.03
2023-04-14T17:40:04.907Z,3.05
2023-04-14T17:42:32.417Z,4.57
2023-04-14T17:44:59.172Z,3.67
2023-04-14T17:47:27.169Z,3.92
2023-04-14T17:49:54.530Z,12.13
2023-04-14T17:52:21.679Z,8.10
2023-04-14T17:54:49.909Z,4.97
2023-04-14T17:57:17.424Z,8.25
2023-04-14T17:59:47.464Z,3.42
2023-04-14T18:02:15.776Z,7.70
2023-04-14T18:04:43.073Z,3.30
2023-04-14T18:07:10.211Z,5.30
2023-04-14T18:09:37.165Z,7.60
2023-04-14T18:12:04.902Z,3.13
2023-04-14T18:14:32.959Z,1.73
2023-04-14T18:16:59.982Z,6.10
2023-04-14T18:19:27.432Z,7.00
2023-04-14T18:21:55.974Z,4.45
2023-04-14T18:26:54.320Z,4.85
2023-04-14T18:29:21.280Z,5.32
2023-04-14T18:31:49.318Z,3.60
2023-04-14T18:34:16.819Z,4.07
2023-04-14T18:36:44.305Z,4.00
2023-04-14T18:39:11.286Z,2.75
2023-04-14T18:41:38.485Z,3.67
2023-04-14T18:44:05.539Z,1.42
2023-04-14T18:46:32.643Z,3.35
2023-04-14T18:48:59.862Z,4.43
2023-04-14T18:51:27.514Z,6.00
2023-04-14T18:53:54.548Z,2.63
2023-04-14T18:56:21.459Z,2.30
2023-04-14T18:58:49.153Z,3.20
2023-04-14T19:01:17.345Z,2.38
2023-04-14T19:03:44.263Z,3.08
2023-04-14T19:06:11.080Z,4.60
2023-04-14T19:08:37.991Z,3.58
2023-04-14T19:11:05.544Z,2.80
2023-04-14T19:13:32.491Z,6.18
2023-04-14T19:16:08.987Z,2.45
2023-04-14T19:18:35.945Z,5.67
2023-04-14T19:21:03.179Z,7.22
2023-04-14T19:23:30.307Z,5.95
2023-04-14T19:25:57.586Z,6.75
2023-04-14T19:28:26.041Z,4.03
2023-04-14T19:30:53.305Z,3.13
2023-04-14T19:33:20.853Z,4.90
2023-04-14T19:35:49.072Z,3.85
2023-04-14T19:38:16.053Z,6.78
2023-04-14T19:40:49.903Z,6.73
2023-04-14T19:43:18.544Z,4.60
2023-04-14T19:45:57.112Z,5.50
2023-04-14T19:48:25.494Z,4.27
2023-04-14T19:50:54.262Z,5.03
2023-04-14T19:53:22.577Z,4.20
2023-04-14T19:55:53.809Z,6.32
2023-04-14T19:58:21.790Z,6.32
2023-04-14T20:00:51.678Z,5.85
2023-04-14T20:03:19.611Z,2.45
2023-04-14T20:05:54.825Z,5.20
2023-04-14T20:08:22.844Z,6.80
2023-04-14T20:10:51.965Z,6.10
2023-04-14T20:13:24.406Z,9.10
2023-04-14T20:15:54.114Z,6.95
2023-04-14T20:18:22.642Z,6.63
2023-04-14T20:20:50.212Z,6.90
2023-04-14T20:23:17.162Z,8.20
2023-04-14T20:25:45.458Z,7.28
2023-04-14T20:28:12.475Z,6.13
2023-04-14T20:30:39.558Z,6.40
2023-04-14T20:33:06.431Z,6.75
2023-04-14T20:35:38.153Z,4.87
2023-04-14T20:38:05.212Z,4.25
2023-04-14T20:40:32.632Z,3.33
2023-04-14T20:43:00.096Z,5.47
2023-04-14T20:45:26.940Z,6.07
2023-04-14T20:47:53.798Z,10.30
2023-04-14T20:50:21.165Z,4.95
2023-04-14T20:52:48.667Z,7.22
2023-04-14T20:55:15.684Z,3.63
2023-04-14T20:57:42.875Z,3.60
2023-04-14T21:00:12.002Z,3.40
2023-04-14T21:02:39.062Z,6.55
2023-04-14T21:05:06.351Z,4.53
2023-04-14T21:07:36.369Z,7.20
2023-04-14T21:10:09.260Z,5.95
2023-04-14T21:12:36.851Z,4.53
2023-04-14T21:15:49.698Z,4.88
2023-04-14T21:18:11.827Z,5.53
2023-04-14T21:20:38.680Z,7.27
2023-04-14T21:23:05.811Z,3.92
2023-04-14T21:25:34.462Z,6.45
2023-04-14T21:28:02.374Z,3.85
2023-04-14T21:30:29.243Z,4.30
2023-04-14T21:32:56.064Z,9.88
2023-04-14T21:35:22.930Z,8.02
2023-04-14T21:37:49.708Z,5.00
2023-04-14T21:40:16.524Z,3.88
2023-04-14T21:42:43.657Z,7.88
2023-04-14T21:45:10.786Z,7.68
2023-04-14T21:47:37.853Z,11.48
2023-04-14T21:50:05.013Z,5.03
2023-04-14T21:52:31.872Z,5.10
2023-04-14T21:54:58.691Z,9.02
2023-04-14T21:57:42.575Z,8.32
2023-04-14T22:00:15.528Z,9.05
2023-04-14T22:02:42.913Z,9.20
2023-04-14T22:05:10.590Z,3.92
2023-04-14T22:07:37.629Z,7.00
2023-04-14T22:10:04.786Z,4.22
2023-04-14T22:12:32.677Z,8.73
2023-04-14T22:15:00.908Z,6.43
2023-04-14T22:17:27.740Z,8.53
2023-04-14T22:19:54.528Z,8.63
2023-04-14T22:22:21.482Z,11.43
2023-04-14T22:24:50.496Z,8.20
2023-04-14T22:27:17.709Z,5.57
2023-04-14T22:29:44.499Z,7.85
2023-04-14T22:32:12.004Z,8.77
2023-04-14T22:34:39.060Z,6.60
2023-04-14T22:37:06.125Z,5.68
2023-04-14T22:39:33.083Z,8.32
2023-04-14T22:42:00.044Z,7.97
2023-04-14T22:44:27.291Z,7.07
2023-04-14T22:46:54.327Z,6.43
2023-04-14T22:49:21.460Z,8.23
2023-04-14T22:51:48.327Z,7.50
2023-04-14T22:54:15.234Z,9.67
2023-04-14T22:56:42.383Z,8.18
2023-04-14T22:59:09.209Z,5.53
2023-04-14T23:01:36.222Z,8.57
2023-04-14T23:04:03.276Z,7.70
2023-04-14T23:06:30.206Z,10.85
2023-04-14T23:08:57.238Z,8.48
2023-04-14T23:11:24.064Z,7.03
2023-04-14T23:13:51.452Z,8.75
2023-04-14T23:16:22.386Z,10.93
2023-04-14T23:18:52.988Z,9.18
2023-04-14T23:21:23.665Z,6.97
2023-04-14T23:23:51.068Z,5.37
2023-04-14T23:26:19.615Z,6.63
2023-04-14T23:28:46.860Z,5.95
2023-04-14T23:31:13.669Z,6.88
2023-04-14T23:33:40.552Z,5.80
2023-04-14T23:36:08.104Z,9.25
2023-04-14T23:38:35.360Z,9.07
2023-04-14T23:41:02.411Z,7.93
2023-04-14T23:43:29.360Z,9.82
2023-04-14T23:45:56.783Z,7.78
2023-04-14T23:48:23.979Z,9.50
2023-04-14T23:50:58.679Z,9.85
2023-04-14T23:53:28.523Z,8.50
2023-04-14T23:55:55.754Z,8.63
2023-04-14T23:58:26.817Z,8.93
